createdAt,value
2023-04-02T00:01:47.114Z,2.08
2023-04-02T00:04:21.938Z,2.35
2023-04-02T00:06:54.169Z,1.79
2023-04-02T00:09:25.652Z,2.21
2023-04-02T00:11:55.692Z,2.12
2023-04-02T00:14:22.061Z,2.16
2023-04-02T00:16:49.076Z,2.13
2023-04-02T00:19:25.730Z,2.19
2023-04-02T00:21:53.873Z,2.30
2023-04-02T00:24:21.712Z,2.11
2023-04-02T00:26:51.326Z,2.27
2023-04-02T00:29:18.880Z,2.06
2023-04-02T00:31:49.021Z,2.36
2023-04-02T00:34:23.861Z,1.73
2023-04-02T00:36:51.054Z,1.74
2023-04-02T00:39:41.442Z,1.73
2023-04-02T00:42:12.514Z,1.88
2023-04-02T00:44:44.883Z,1.96
2023-04-02T00:47:20.937Z,1.66
2023-04-02T00:49:51.830Z,1.80
2023-04-02T00:52:23.348Z,1.81
2023-04-02T00:54:56.750Z,2.15
2023-04-02T00:57:26.360Z,2.18
2023-04-02T01:00:21.402Z,2.19
2023-04-02T01:03:19.288Z,2.03
2023-04-02T01:05:55.928Z,1.91
2023-04-02T01:08:37.591Z,2.13
2023-04-02T01:11:03.872Z,1.69
2023-04-02T01:13:38.223Z,2.02
2023-04-02T01:16:13.825Z,1.54
2023-04-02T01:18:52.009Z,1.62
2023-04-02T01:21:54.200Z,1.99
2023-04-02T01:24:24.465Z,1.97
2023-04-02T01:27:16.400Z,1.71
2023-04-02T01:29:57.519Z,1.82
2023-04-02T01:32:28.055Z,2.14
2023-04-02T01:34:57.032Z,2.11
2023-04-02T01:37:49.817Z,2.11
2023-04-02T01:40:39.845Z,1.76
2023-04-02T01:43:12.308Z,1.86
2023-04-02T01:45:39.063Z,2.19
2023-04-02T01:48:17.774Z,2.53
2023-04-02T01:50:46.563Z,2.63
2023-04-02T01:53:16.592Z,2.35
2023-04-02T01:55:56.702Z,2.12
2023-04-02T01:58:27.107Z,2.51
2023-04-02T02:01:09.335Z,2.16
2023-04-02T02:03:37.677Z,2.09
2023-04-02T02:06:06.002Z,2.45
2023-04-02T02:08:44.882Z,2.52
2023-04-02T02:11:15.571Z,2.50
2023-04-02T02:13:55.489Z,2.49
2023-04-02T02:16:23.142Z,2.58
2023-04-02T02:18:56.488Z,2.10
2023-04-02T02:21:40.092Z,2.19
2023-04-02T02:24:17.043Z,2.60
2023-04-02T02:26:46.575Z,2.60
2023-04-02T02:29:18.518Z,2.66
2023-04-02T02:31:48.336Z,2.72
2023-04-02T02:34:28.179Z,2.78
2023-04-02T02:37:14.690Z,2.56
2023-04-02T02:39:44.860Z,2.48
2023-04-02T02:42:22.678Z,2.59
2023-04-02T02:44:51.361Z,2.27
2023-04-02T02:47:30.809Z,2.02
2023-04-02T02:50:22.354Z,1.88
2023-04-02T02:52:57.613Z,2.21
2023-04-02T02:55:32.070Z,2.36
2023-04-02T02:58:04.492Z,2.14
2023-04-02T03:00:31.931Z,1.86
2023-04-02T03:02:58.549Z,2.00
2023-04-02T03:05:27.991Z,2.13
2023-04-02T03:07:57.130Z,1.87
2023-04-02T03:10:34.997Z,2.08
2023-04-02T03:13:36.897Z,2.16
2023-04-02T03:16:20.878Z,2.17
2023-04-02T03:18:53.287Z,1.76
2023-04-02T03:21:48.661Z,2.08
2023-04-02T03:24:39.651Z,2.01
2023-04-02T03:27:11.237Z,2.16
2023-04-02T03:29:41.446Z,2.23
2023-04-02T03:32:17.101Z,2.46
2023-04-02T03:34:50.452Z,2.18
2023-04-02T03:37:28.485Z,2.35
2023-04-02T03:40:19.203Z,1.90
2023-04-02T03:43:02.778Z,2.06
2023-04-02T03:45:39.012Z,1.79
2023-04-02T03:48:15.841Z,2.27
2023-04-02T03:50:58.373Z,1.84
2023-04-02T03:53:26.906Z,2.12
2023-04-02T03:55:55.742Z,2.36
2023-04-02T03:58:32.104Z,2.01
2023-04-02T04:01:26.191Z,2.30
2023-04-02T04:04:02.981Z,2.49
2023-04-02T04:06:33.034Z,2.48
2023-04-02T04:09:07.339Z,1.87
2023-04-02T04:11:37.615Z,2.12
2023-04-02T04:14:14.171Z,2.46
2023-04-02T04:17:15.420Z,2.21
2023-04-02T04:19:54.920Z,2.63
2023-04-02T04:22:33.628Z,2.19
2023-04-02T04:25:17.913Z,2.45
2023-04-02T04:28:07.644Z,2.11
2023-04-02T04:30:50.773Z,2.37
2023-04-02T04:33:34.552Z,2.37
2023-04-02T04:36:03.163Z,2.14
2023-04-02T04:38:39.103Z,2.23
2023-04-02T04:41:13.264Z,2.03
2023-04-02T04:43:52.149Z,2.14
2023-04-02T04:46:25.669Z,2.11
2023-04-02T04:49:08.316Z,2.17
2023-04-02T04:51:45.773Z,2.06
2023-04-02T04:54:14.172Z,1.93
2023-04-02T04:56:44.644Z,1.73
2023-04-02T04:59:42.705Z,2.01
2023-04-02T05:02:30.222Z,2.34
2023-04-02T05:04:56.894Z,2.13
2023-04-02T05:07:30.089Z,2.25
2023-04-02T05:10:03.755Z,2.31
2023-04-02T05:12:41.960Z,2.17
2023-04-02T05:15:28.124Z,2.23
2023-04-02T05:18:32.626Z,2.23
2023-04-02T05:20:59.012Z,2.52
2023-04-02T05:23:28.677Z,2.03
2023-04-02T05:26:19.259Z,2.22
2023-04-02T05:28:59.638Z,2.41
2023-04-02T05:31:38.586Z,2.06
2023-04-02T05:34:05.668Z,2.13
2023-04-02T05:36:33.002Z,2.46
2023-04-02T05:39:00.588Z,2.32
2023-04-02T05:41:30.404Z,1.82
2023-04-02T05:44:06.732Z,2.01
2023-04-02T05:46:43.531Z,2.21
2023-04-02T05:49:18.562Z,2.34
2023-04-02T05:51:50.323Z,2.06
2023-04-02T05:54:27.158Z,2.12
2023-04-02T05:57:03.685Z,2.39
2023-04-02T05:59:37.379Z,2.17
2023-04-02T06:02:21.839Z,2.43
2023-04-02T06:04:59.772Z,2.45
2023-04-02T06:07:32.503Z,2.22
2023-04-02T06:10:10.829Z,2.31
2023-04-02T06:13:03.088Z,1.97
2023-04-02T06:15:31.441Z,2.27
2023-04-02T06:18:16.834Z,1.98
2023-04-02T06:20:43.398Z,2.50
2023-04-02T06:23:19.732Z,2.59
2023-04-02T06:25:49.173Z,2.44
2023-04-02T06:28:20.206Z,2.53
2023-04-02T06:30:48.150Z,2.35
2023-04-02T06:33:15.895Z,2.09
2023-04-02T06:35:43.173Z,2.34
2023-04-02T06:38:20.214Z,2.25
2023-04-02T06:40:52.243Z,2.23
2023-04-02T06:43:36.101Z,2.56
2023-04-02T06:46:09.443Z,2.14
2023-04-02T06:48:37.836Z,2.09
2023-04-02T06:51:08.996Z,2.51
2023-04-02T06:53:38.985Z,2.43
2023-04-02T06:56:14.480Z,2.49
2023-04-02T06:58:41.108Z,2.11
2023-04-02T07:01:12.734Z,2.00
2023-04-02T07:03:40.043Z,2.52
2023-04-02T07:06:07.454Z,2.88
2023-04-02T07:08:33.844Z,3.01
2023-04-02T07:11:00.660Z,3.26
2023-04-02T07:13:27.171Z,2.34
2023-04-02T07:15:55.160Z,2.09
2023-04-02T07:18:29.250Z,2.55
2023-04-02T07:20:56.568Z,2.72
2023-04-02T07:23:23.482Z,2.63
2023-04-02T07:25:51.387Z,2.49
2023-04-02T07:28:18.006Z,2.96
2023-04-02T07:30:45.396Z,2.76
2023-04-02T07:33:18.248Z,2.69
2023-04-02T07:35:45.455Z,3.02
2023-04-02T07:38:12.324Z,2.96
2023-04-02T07:40:39.319Z,2.62
2023-04-02T07:43:06.440Z,2.67
2023-04-02T07:45:33.077Z,2.90
2023-04-02T07:48:11.360Z,2.90
2023-04-02T07:50:38.002Z,3.07
2023-04-02T07:53:04.992Z,2.79
2023-04-02T07:55:31.993Z,2.33
2023-04-02T07:57:59.799Z,3.03
2023-04-02T08:00:28.281Z,2.42
2023-04-02T08:02:54.820Z,2.77
2023-04-02T08:05:22.316Z,3.14
2023-04-02T08:07:57.184Z,2.99
2023-04-02T08:10:24.380Z,3.30
2023-04-02T08:12:51.459Z,2.58
2023-04-02T08:15:18.450Z,2.59
2023-04-02T08:17:46.390Z,2.37
2023-04-02T08:20:21.225Z,2.72
2023-04-02T08:22:49.055Z,2.62
2023-04-02T08:25:16.675Z,2.83
2023-04-02T08:27:43.346Z,2.75
2023-04-02T08:30:12.547Z,2.75
2023-04-02T08:32:41.035Z,2.64
2023-04-02T08:35:12.305Z,2.83
2023-04-02T08:37:38.853Z,2.82
2023-04-02T08:40:09.977Z,2.82
2023-04-02T08:42:46.405Z,3.15
2023-04-02T08:45:54.217Z,3.31
2023-04-02T08:48:20.994Z,2.95
2023-04-02T08:50:47.472Z,2.89
2023-04-02T08:53:19.278Z,3.46
2023-04-02T08:56:05.629Z,2.91
2023-04-02T08:58:43.654Z,3.36
2023-04-02T09:01:19.247Z,3.73
2023-04-02T09:03:49.804Z,3.56
2023-04-02T09:06:19.253Z,3.47
2023-04-02T09:08:48.881Z,3.69
2023-04-02T09:11:21.462Z,3.90
2023-04-02T09:13:54.403Z,4.05
2023-04-02T09:16:34.048Z,3.91
2023-04-02T09:19:01.509Z,4.58
2023-04-02T09:21:36.372Z,4.48
2023-04-02T09:24:05.307Z,4.50
2023-04-02T09:26:33.527Z,4.03
2023-04-02T09:29:08.389Z,4.20
2023-04-02T09:31:39.864Z,3.63
2023-04-02T09:34:29.939Z,4.01
2023-04-02T09:36:57.646Z,3.98
2023-04-02T09:39:26.286Z,3.85
2023-04-02T09:42:05.124Z,3.88
2023-04-02T09:44:33.128Z,4.54
2023-04-02T09:47:05.978Z,4.77
2023-04-02T09:49:36.159Z,4.75
2023-04-02T09:52:27.069Z,4.96
2023-04-02T09:55:18.269Z,5.08
2023-04-02T09:57:46.955Z,4.85
2023-04-02T10:00:31.347Z,4.99
2023-04-02T10:03:24.026Z,5.42
2023-04-02T10:06:11.321Z,5.54
2023-04-02T10:08:39.992Z,5.29
2023-04-02T10:11:14.256Z,4.63
2023-04-02T10:13:55.887Z,4.32
2023-04-02T10:16:32.796Z,4.67
2023-04-02T10:19:07.198Z,4.75
2023-04-02T10:21:37.382Z,4.11
2023-04-02T10:24:12.616Z,4.14
2023-04-02T10:26:53.692Z,4.40
2023-04-02T10:29:35.993Z,4.61
2023-04-02T10:32:14.596Z,4.65
2023-04-02T10:34:42.911Z,4.90
2023-04-02T10:37:33.717Z,4.22
2023-04-02T10:40:09.988Z,4.40
2023-04-02T10:42:55.117Z,4.93
2023-04-02T10:45:46.725Z,4.58
2023-04-02T10:48:18.937Z,5.13
2023-04-02T10:50:52.852Z,5.16
2023-04-02T10:53:23.244Z,5.48
2023-04-02T10:55:58.027Z,5.22
2023-04-02T10:58:31.694Z,5.15
2023-04-02T11:01:21.508Z,4.85
2023-04-02T11:03:57.837Z,4.75
2023-04-02T11:06:30.202Z,4.86
2023-04-02T11:09:07.316Z,4.82
2023-04-02T11:11:42.074Z,5.24
2023-04-02T11:14:20.932Z,4.95
2023-04-02T11:16:51.954Z,4.96
2023-04-02T11:19:18.423Z,5.55
2023-04-02T11:22:13.875Z,5.31
2023-04-02T11:24:48.386Z,5.72
2023-04-02T11:27:29.231Z,5.75
2023-04-02T11:30:08.037Z,5.55
2023-04-02T11:32:40.477Z,5.90
2023-04-02T11:35:31.998Z,6.05
2023-04-02T11:38:23.362Z,5.69
2023-04-02T11:41:00.282Z,5.83
2023-04-02T11:43:32.579Z,5.51
2023-04-02T11:46:29.899Z,5.86
2023-04-02T11:49:35.824Z,6.29
2023-04-02T11:52:12.062Z,5.98
2023-04-02T11:54:39.488Z,6.00
2023-04-02T11:57:28.305Z,5.83
2023-04-02T12:00:19.518Z,5.47
2023-04-02T12:03:14.431Z,5.60
2023-04-02T12:05:54.880Z,5.28
2023-04-02T12:08:28.954Z,5.21
2023-04-02T12:10:59.452Z,5.06
2023-04-02T12:13:41.214Z,5.24
2023-04-02T12:16:09.363Z,5.05
2023-04-02T12:18:41.636Z,5.54
2023-04-02T12:21:08.152Z,5.89
2023-04-02T12:23:37.194Z,6.09
2023-04-02T12:26:09.043Z,5.87
2023-04-02T12:28:38.033Z,5.52
2023-04-02T12:31:13.262Z,5.78
2023-04-02T12:33:40.887Z,5.27
2023-04-02T12:36:18.136Z,5.46
2023-04-02T12:38:51.916Z,5.39
2023-04-02T12:41:27.185Z,5.40
2023-04-02T12:44:02.769Z,5.13
2023-04-02T12:46:32.130Z,5.33
2023-04-02T12:49:06.779Z,5.33
2023-04-02T12:51:35.842Z,6.01
2023-04-02T12:54:02.836Z,5.90
2023-04-02T12:56:29.317Z,5.67
2023-04-02T12:58:59.826Z,5.33
2023-04-02T13:01:29.844Z,5.13
2023-04-02T13:03:59.988Z,4.90
2023-04-02T13:06:27.054Z,5.00
2023-04-02T13:08:54.983Z,4.82
2023-04-02T13:11:22.683Z,4.84
2023-04-02T13:13:50.299Z,4.83
2023-04-02T13:16:19.678Z,4.86
2023-04-02T13:18:48.367Z,4.91
2023-04-02T13:21:14.741Z,5.25
2023-04-02T13:23:41.224Z,4.85
2023-04-02T13:26:19.874Z,5.02
2023-04-02T13:29:16.911Z,4.94
2023-04-02T13:31:43.899Z,4.87
2023-04-02T13:34:10.670Z,5.08
2023-04-02T13:36:37.417Z,4.92
2023-04-02T13:39:04.847Z,4.41
2023-04-02T13:41:36.481Z,4.65
2023-04-02T13:44:03.378Z,4.91
2023-04-02T13:46:32.551Z,4.43
2023-04-02T13:48:59.520Z,4.25
2023-04-02T13:51:47.131Z,4.70
2023-04-02T13:54:23.314Z,4.63
2023-04-02T13:56:50.040Z,4.65
2023-04-02T13:59:16.744Z,4.39
2023-04-02T14:01:46.161Z,4.19
2023-04-02T14:04:18.643Z,4.07
2023-04-02T14:07:07.187Z,4.22
2023-04-02T14:09:51.266Z,4.54
2023-04-02T14:12:23.517Z,4.60
2023-04-02T14:14:50.544Z,4.69
2023-04-02T14:17:37.887Z,4.47
2023-04-02T14:20:39.782Z,4.30
2023-04-02T14:23:24.435Z,4.23
2023-04-02T14:26:15.262Z,4.40
2023-04-02T14:28:57.547Z,4.35
2023-04-02T14:31:38.700Z,4.85
2023-04-02T14:34:21.569Z,4.48
2023-04-02T14:37:06.403Z,4.15
2023-04-02T14:39:55.018Z,4.18
2023-04-02T14:42:46.141Z,3.90
2023-04-02T14:45:26.236Z,4.05
2023-04-02T14:48:02.875Z,4.34
2023-04-02T14:50:41.801Z,4.28
2023-04-02T14:53:22.951Z,4.32
2023-04-02T14:55:52.739Z,4.64
2023-04-02T14:58:27.823Z,4.66
2023-04-02T15:01:00.502Z,4.60
2023-04-02T15:03:36.437Z,4.52
2023-04-02T15:06:11.137Z,4.35
2023-04-02T15:09:09.687Z,4.01
2023-04-02T15:11:41.138Z,3.94
2023-04-02T15:14:36.832Z,3.88
2023-04-02T15:17:03.796Z,4.27
2023-04-02T15:19:30.724Z,4.28
2023-04-02T15:22:03.868Z,4.12
2023-04-02T15:24:40.200Z,4.01
2023-04-02T15:27:34.567Z,4.03
2023-04-02T15:30:23.776Z,4.39
2023-04-02T15:32:51.140Z,3.77
2023-04-02T15:35:17.642Z,4.08
2023-04-02T15:37:51.166Z,3.66
2023-04-02T15:40:26.505Z,4.08
2023-04-02T15:43:07.124Z,3.72
2023-04-02T15:45:50.592Z,3.28
2023-04-02T15:48:33.332Z,3.51
2023-04-02T15:51:14.464Z,3.62
2023-04-02T15:53:44.712Z,3.43
2023-04-02T15:56:37.993Z,3.66
2023-04-02T15:59:30.641Z,4.02
2023-04-02T16:02:30.954Z,4.26
2023-04-02T16:05:09.116Z,4.41
2023-04-02T16:07:47.987Z,4.16
2023-04-02T16:10:41.126Z,3.91
2023-04-02T16:13:34.866Z,3.99
2023-04-02T16:16:09.619Z,3.91
2023-04-02T16:18:49.833Z,4.40
2023-04-02T16:21:21.848Z,3.89
2023-04-02T16:23:49.005Z,3.70
2023-04-02T16:26:39.116Z,3.79
2023-04-02T16:29:51.174Z,3.67
2023-04-02T16:32:32.774Z,4.08
2023-04-02T16:37:56.929Z,3.94
2023-04-02T16:41:08.348Z,3.41
2023-04-02T16:43:57.566Z,3.48
2023-04-02T16:46:40.544Z,3.35
2023-04-02T16:49:27.108Z,3.17
2023-04-02T16:51:56.862Z,3.22
2023-04-02T16:55:02.156Z,3.09
2023-04-02T16:57:47.692Z,3.33
2023-04-02T17:00:33.274Z,3.37
2023-04-02T17:03:09.243Z,2.97
2023-04-02T17:06:23.511Z,3.07
2023-04-02T17:08:58.662Z,2.77
2023-04-02T17:11:36.624Z,3.16
2023-04-02T17:14:12.145Z,3.26
2023-04-02T17:16:45.743Z,3.06
2023-04-02T17:19:17.980Z,2.72
2023-04-02T17:21:48.487Z,2.81
2023-04-02T17:24:26.274Z,2.78
2023-04-02T17:27:20.739Z,2.50
2023-04-02T17:29:52.739Z,2.46
2023-04-02T17:32:32.474Z,2.74
2023-04-02T17:35:36.014Z,2.63
2023-04-02T17:38:31.757Z,2.55
2023-04-02T17:41:17.486Z,2.46
2023-04-02T17:43:52.561Z,2.28
2023-04-02T17:46:34.611Z,2.01
2023-04-02T17:49:42.420Z,2.23
2023-04-02T17:52:33.616Z,2.21
2023-04-02T17:55:06.342Z,2.33
2023-04-02T17:58:05.087Z,2.33
2023-04-02T18:00:53.908Z,2.21
2023-04-02T18:03:35.661Z,2.34
2023-04-02T18:06:24.887Z,2.18
2023-04-02T18:09:29.506Z,1.89
2023-04-02T18:12:14.030Z,2.17
2023-04-02T18:15:06.660Z,1.73
2023-04-02T18:17:39.321Z,1.99
2023-04-02T18:20:20.831Z,2.31
2023-04-02T18:23:32.206Z,1.74
2023-04-02T18:26:32.678Z,1.46
2023-04-02T18:29:17.454Z,1.85
2023-04-02T18:32:09.545Z,1.87
2023-04-02T18:34:52.738Z,1.63
2023-04-02T18:37:28.493Z,1.26
2023-04-02T18:40:09.930Z,1.45
2023-04-02T18:43:03.916Z,1.45
2023-04-02T18:45:54.668Z,1.46
2023-04-02T18:48:36.840Z,1.47
2023-04-02T18:51:05.880Z,1.44
2023-04-02T18:53:33.606Z,1.33
2023-04-02T18:56:07.370Z,1.47
2023-04-02T18:58:53.111Z,1.16
2023-04-02T19:01:30.688Z,1.16
2023-04-02T19:04:11.096Z,1.31
2023-04-02T19:06:42.058Z,1.34
2023-04-02T19:09:23.341Z,1.34
2023-04-02T19:11:53.031Z,1.24
2023-04-02T19:14:21.254Z,1.39
2023-04-02T19:17:09.747Z,1.18
2023-04-02T19:20:11.370Z,0.86
2023-04-02T19:22:57.105Z,1.10
2023-04-02T19:25:45.393Z,0.90
2023-04-02T19:28:14.796Z,0.97
2023-04-02T19:30:50.774Z,1.17
2023-04-02T19:33:23.412Z,0.91
2023-04-02T19:36:14.056Z,0.92
2023-04-02T19:39:06.041Z,0.75
2023-04-02T19:41:51.429Z,0.57
2023-04-02T19:44:18.871Z,1.18
2023-04-02T19:46:46.403Z,1.01
2023-04-02T19:49:22.751Z,1.05
2023-04-02T19:51:50.107Z,1.06
2023-04-02T19:54:16.616Z,0.70
2023-04-02T19:56:43.460Z,0.69
2023-04-02T20:01:43.528Z,0.85
2023-04-02T20:04:10.043Z,0.93
2023-04-02T20:06:37.536Z,0.92
2023-04-02T20:09:04.024Z,0.94
2023-04-02T20:11:31.043Z,0.99
2023-04-02T20:13:57.484Z,1.11
2023-04-02T20:16:24.025Z,0.78
2023-04-02T20:18:51.271Z,0.80
2023-04-02T20:21:18.005Z,1.10
2023-04-02T20:23:44.834Z,1.22
2023-04-02T20:26:12.608Z,0.96
2023-04-02T20:28:39.325Z,0.59
2023-04-02T20:31:11.689Z,0.76
2023-04-02T20:33:38.850Z,0.83
2023-04-02T20:36:14.378Z,0.50
2023-04-02T20:38:41.572Z,0.64
2023-04-02T20:41:08.863Z,0.57
2023-04-02T20:43:36.545Z,0.39
2023-04-02T20:46:05.759Z,0.31
2023-04-02T20:48:34.131Z,0.64
2023-04-02T20:51:02.971Z,0.53
2023-04-02T20:53:30.993Z,0.25
2023-04-02T20:56:08.970Z,0.63
2023-04-02T20:58:37.620Z,0.24
2023-04-02T21:01:24.699Z,0.40
2023-04-02T21:03:56.655Z,0.42
2023-04-02T21:06:25.509Z,0.38
2023-04-02T21:08:52.932Z,0.38
2023-04-02T21:11:21.751Z,0.38
2023-04-02T21:13:49.145Z,0.49
2023-04-02T21:16:19.368Z,0.48
2023-04-02T21:18:47.999Z,0.20
2023-04-02T21:21:15.592Z,0.32
2023-04-02T21:23:44.977Z,0.22
2023-04-02T21:26:17.481Z,0.25
2023-04-02T21:28:44.860Z,0.38
2023-04-02T21:31:20.481Z,0.30
2023-04-02T21:33:49.837Z,0.14
2023-04-02T21:36:19.166Z,0.25
2023-04-02T21:38:48.302Z,0.07
2023-04-02T21:41:23.363Z,0.11
2023-04-02T21:43:50.303Z,-0.04
2023-04-02T21:46:19.286Z,-0.00
2023-04-02T21:48:46.603Z,-0.05
2023-04-02T21:51:17.550Z,-0.08
2023-04-02T21:53:44.673Z,-0.13
2023-04-02T21:56:13.907Z,-0.13
2023-04-02T21:58:40.891Z,-0.09
2023-04-02T22:01:11.326Z,-0.08
2023-04-02T22:03:44.321Z,-0.07
2023-04-02T22:06:15.909Z,-0.12
2023-04-02T22:08:43.498Z,-0.01
2023-04-02T22:11:18.939Z,-0.09
2023-04-02T22:13:46.816Z,-0.12
2023-04-02T22:16:15.963Z,-0.24
2023-04-02T22:18:43.579Z,-0.08
2023-04-02T22:21:11.262Z,-0.10
2023-04-02T22:23:37.878Z,-0.23
2023-04-02T22:26:06.311Z,-0.34
2023-04-02T22:28:33.100Z,-0.22
2023-04-02T22:31:17.973Z,-0.31
2023-04-02T22:33:45.572Z,-0.07
2023-04-02T22:36:13.041Z,-0.23
2023-04-02T22:38:39.603Z,-0.27
2023-04-02T22:41:08.122Z,-0.24
2023-04-02T22:43:35.623Z,-0.24
2023-04-02T22:46:02.833Z,-0.26
2023-04-02T22:48:29.383Z,-0.38
2023-04-02T22:50:55.827Z,-0.46
2023-04-02T22:53:22.687Z,-0.42
2023-04-02T22:55:49.303Z,-0.48
2023-04-02T22:58:15.865Z,-0.58
2023-04-02T23:00:42.469Z,-0.60
2023-04-02T23:03:08.916Z,-0.53
2023-04-02T23:05:35.454Z,-0.58
2023-04-02T23:08:01.901Z,-0.57
2023-04-02T23:10:28.998Z,-0.58
2023-04-02T23:12:57.402Z,-0.58
2023-04-02T23:15:23.941Z,-0.59
2023-04-02T23:17:50.433Z,-0.49
2023-04-02T23:20:16.909Z,-0.57
2023-04-02T23:22:43.395Z,-0.50
2023-04-02T23:25:09.873Z,-0.43
2023-04-02T23:27:36.535Z,-0.54
2023-04-02T23:30:03.412Z,-0.39
2023-04-02T23:32:29.907Z,-0.58
2023-04-02T23:34:56.332Z,-0.62
2023-04-02T23:37:22.825Z,-0.67
2023-04-02T23:39:49.246Z,-0.81
2023-04-02T23:42:15.901Z,-0.78
2023-04-02T23:44:42.324Z,-0.92
2023-04-02T23:47:09.394Z,-0.68
2023-04-02T23:49:35.838Z,-0.81
2023-04-02T23:52:02.245Z,-0.83
2023-04-02T23:54:28.656Z,-0.94
2023-04-02T23:56:55.125Z,-0.95
2023-04-02T23:59:21.560Z,-0.95
